Time;durP1;ratioP1;P1;durP2;ratioP2;P2;SDS_P1;SDS_P2;PMS_P1;PMS_P2;Temp;Humidity;BMP_temperature;BMP_pressure;BME280_temperature;BME280_humidity;BME280_pressure;Samples;Min_cycle;Max_cycle;Signal;HPM_P1;HPM_P2
2022/04/21 00:01:34;;;;;;;10.95;7.57;;;;;;;11.90;52.05;101606.25;5135318;28;20507;-47
2022/04/21 00:04:07;;;;;;;10.85;7.28;;;;;;;11.96;52.15;101621.59;5137041;28;20430;-46
2022/04/21 00:06:39;;;;;;;9.15;7.50;;;;;;;11.96;52.17;101613.66;5138016;28;20976;-44
2022/04/21 00:09:11;;;;;;;13.07;8.18;;;;;;;11.95;52.16;101608.47;5139139;28;20825;-45
2022/04/21 00:11:44;;;;;;;11.35;7.68;;;;;;;11.71;52.29;101606.25;5140649;28;20473;-46
2022/04/21 00:14:18;;;;;;;11.37;7.80;;;;;;;11.89;52.40;101614.31;5141018;28;20885;-48
2022/04/21 00:16:50;;;;;;;10.52;7.25;;;;;;;11.88;52.47;101605.56;5139563;28;20491;-47
2022/04/21 00:19:23;;;;;;;10.40;7.50;;;;;;;11.86;52.39;101604.88;5140135;28;20908;-50
2022/04/21 00:24:45;;;;;;;11.80;7.70;;;;;;;11.83;52.50;101599.84;5173320;28;20433;-43
2022/04/21 00:27:18;;;;;;;11.00;7.72;;;;;;;11.82;52.51;101598.13;5170264;28;20439;-46
2022/04/21 00:29:52;;;;;;;12.32;7.57;;;;;;;11.78;52.59;101591.47;5144037;28;20931;-46
2022/04/21 00:32:24;;;;;;;11.32;7.60;;;;;;;11.80;52.55;101594.81;5171747;28;20902;-47
2022/04/21 00:34:57;;;;;;;10.10;7.30;;;;;;;11.78;52.69;101596.75;5220832;28;20723;-43
2022/04/21 00:37:30;;;;;;;13.60;8.05;;;;;;;11.73;52.76;101588.38;5220019;28;20408;-46
2022/04/21 00:40:02;;;;;;;15.15;8.68;;;;;;;11.73;52.76;101593.69;5200425;28;20499;-40
2022/04/21 00:42:35;;;;;;;9.93;7.87;;;;;;;11.73;52.88;101593.69;5127236;28;20426;-46
2022/04/21 00:45:10;;;;;;;15.18;8.57;;;;;;;11.70;52.82;101583.38;5164091;28;20868;-48
2022/04/21 00:47:45;;;;;;;11.82;7.72;;;;;;;11.66;53.01;101579.34;5118797;28;20992;-46
2022/04/21 00:50:19;;;;;;;10.20;7.82;;;;;;;11.67;53.26;101586.28;5171124;28;20423;-45
2022/04/21 00:52:54;;;;;;;12.07;8.13;;;;;;;11.63;53.30;101576.97;5182418;28;21976;-45
2022/04/21 00:55:27;;;;;;;10.60;7.30;;;;;;;11.63;53.37;101576.97;5176021;28;20434;-46
2022/04/21 00:58:02;;;;;;;9.50;7.63;;;;;;;11.43;53.30;101550.50;5154958;28;20577;-46
2022/04/21 01:00:37;;;;;;;11.27;7.20;;;;;;;11.62;53.26;101580.59;5136817;28;20418;-49
2022/04/21 01:03:08;;;;;;;15.57;8.13;;;;;;;11.64;53.26;101578.63;5142885;28;20418;-47
2022/04/21 01:05:41;;;;;;;11.70;7.35;;;;;;;11.63;53.35;101579.63;5148906;28;20434;-45
2022/04/21 01:08:14;;;;;;;10.15;7.15;;;;;;;11.62;53.30;101585.91;5141260;28;20502;-44
2022/04/21 01:10:47;;;;;;;8.82;7.22;;;;;;;11.54;53.46;101590.03;5137875;28;20423;-45
2022/04/21 01:13:19;;;;;;;10.68;7.15;;;;;;;11.51;53.58;101579.75;5136520;28;20451;-46
2022/04/21 01:15:53;;;;;;;8.98;7.13;;;;;;;11.51;53.55;101586.84;5138358;28;20430;-45
2022/04/21 01:18:28;;;;;;;10.68;7.07;;;;;;;11.51;53.70;101587.69;5136416;28;20422;-43
2022/04/21 01:21:02;;;;;;;9.23;6.72;;;;;;;11.47;53.64;101586.28;5135691;28;20459;-44
2022/04/21 01:23:34;;;;;;;12.98;8.07;;;;;;;11.48;53.80;101600.34;5149083;28;20508;-46
2022/04/21 01:26:07;;;;;;;8.45;7.13;;;;;;;11.46;53.61;101589.91;5198690;28;20494;-47
2022/04/21 01:28:40;;;;;;;10.20;7.65;;;;;;;11.38;53.69;101581.81;5152307;28;20493;-46
2022/04/21 01:31:13;;;;;;;12.65;8.63;;;;;;;11.41;53.80;101593.94;5145564;28;20472;-46
2022/04/21 01:33:45;;;;;;;9.80;7.22;;;;;;;11.38;53.75;101588.91;5166470;28;20865;-45
2022/04/21 01:36:19;;;;;;;10.95;7.53;;;;;;;11.34;53.95;101583.06;5137957;28;20430;-48
2022/04/21 01:41:41;;;;;;;9.68;7.03;;;;;;;11.33;53.81;101584.03;5154667;28;20438;-44
2022/04/21 01:44:13;;;;;;;12.57;7.13;;;;;;;11.33;54.08;101576.09;5148152;28;20597;-45
2022/04/21 01:46:48;;;;;;;10.50;7.57;;;;;;;11.34;53.90;101580.44;5155010;28;20492;-50
2022/04/21 01:49:20;;;;;;;10.68;7.63;;;;;;;11.28;53.84;101573.03;5132446;28;20436;-47
2022/04/21 01:51:54;;;;;;;10.23;7.68;;;;;;;11.33;53.59;101576.09;5135891;28;20412;-45
2022/04/21 01:54:26;;;;;;;12.23;8.05;;;;;;;11.30;53.92;101576.38;5163751;28;20431;-44
2022/04/21 01:56:59;;;;;;;11.17;8.10;;;;;;;11.28;53.98;101573.03;5139918;28;20861;-45
2022/04/21 01:59:32;;;;;;;13.32;7.55;;;;;;;11.24;54.04;101571.63;5210162;28;20538;-45
2022/04/21 02:02:05;;;;;;;10.45;7.45;;;;;;;11.20;54.07;101562.28;5217976;28;20431;-45
2022/04/21 02:04:37;;;;;;;12.55;7.95;;;;;;;11.19;54.03;101558.81;5221035;28;20760;-46
2022/04/21 02:07:11;;;;;;;11.48;8.32;;;;;;;11.13;54.22;101547.97;5206395;28;20911;-44
2022/04/21 02:09:44;;;;;;;10.90;8.38;;;;;;;11.23;53.85;101564.66;5213528;28;20753;-45
2022/04/21 02:12:16;;;;;;;13.65;8.50;;;;;;;11.16;54.02;101560.91;5222364;28;20508;-44
2022/04/21 02:14:49;;;;;;;10.45;7.85;;;;;;;11.11;54.10;101565.75;5224086;28;20475;-47
2022/04/21 02:17:21;;;;;;;13.23;8.45;;;;;;;11.16;54.02;101567.03;5211368;28;20447;-47
2022/04/21 02:19:54;;;;;;;10.48;7.78;;;;;;;11.15;54.22;101567.16;5225204;28;20412;-43
2022/04/21 02:22:28;;;;;;;10.82;8.02;;;;;;;11.15;54.09;101561.84;5231586;28;20937;-48
2022/04/21 02:25:00;;;;;;;11.23;7.70;;;;;;;11.12;54.00;101560.34;5211541;28;20436;-44
2022/04/21 02:27:33;;;;;;;12.57;8.40;;;;;;;11.15;53.82;101569.78;5217522;28;20991;-45
2022/04/21 02:30:08;;;;;;;11.43;7.78;;;;;;;11.12;54.07;101551.56;5228157;28;20846;-45
2022/04/21 02:32:41;;;;;;;14.63;8.85;;;;;;;11.14;53.91;101560.19;5227186;28;20443;-47
2022/04/21 02:35:16;;;;;;;9.70;7.55;;;;;;;11.08;54.04;101551.00;5225593;28;20422;-44
2022/04/21 02:37:49;;;;;;;11.63;9.13;;;;;;;10.95;54.12;101545.97;5225167;28;20491;-43
2022/04/21 02:40:22;;;;;;;12.80;8.68;;;;;;;11.01;54.05;101556.00;5228764;28;20495;-43
2022/04/21 02:42:55;;;;;;;10.43;8.20;;;;;;;11.00;54.07;101559.63;5227058;28;20419;-45
2022/04/21 02:45:27;;;;;;;11.55;9.30;;;;;;;10.97;54.38;101556.41;5232458;28;20399;-47
2022/04/21 02:48:00;;;;;;;13.38;9.00;;;;;;;10.92;54.29;101553.31;5227982;28;20545;-45
2022/04/21 02:50:32;;;;;;;12.82;9.10;;;;;;;10.64;54.55;101523.19;5226001;28;20432;-44
2022/04/21 02:53:07;;;;;;;11.15;8.90;;;;;;;10.74;54.45;101542.53;5219061;28;20501;-44
2022/04/21 02:58:29;;;;;;;12.65;8.77;;;;;;;10.67;54.85;101549.34;5172194;28;20543;-45
2022/04/21 03:01:02;;;;;;;11.57;8.80;;;;;;;10.65;55.08;101548.63;5138596;28;20812;-44
2022/04/21 03:03:34;;;;;;;12.68;9.43;;;;;;;10.60;55.26;101555.16;5133531;28;20411;-43
2022/04/21 03:06:07;;;;;;;15.77;9.93;;;;;;;10.60;55.11;101551.69;5136114;28;20517;-44
2022/04/21 03:08:40;;;;;;;14.30;9.88;;;;;;;10.59;55.18;101555.28;5137598;28;20803;-43
2022/04/21 03:11:13;;;;;;;13.15;8.93;;;;;;;10.55;55.39;101538.84;5139140;28;20419;-42
2022/04/21 03:13:45;;;;;;;10.80;8.93;;;;;;;10.60;55.34;101547.22;5136950;28;20460;-45
2022/04/21 03:16:18;;;;;;;13.27;9.55;;;;;;;10.60;55.10;101544.59;5140402;28;20430;-45
2022/04/21 03:18:50;;;;;;;13.90;9.20;;;;;;;10.48;55.15;101527.16;5137199;28;21008;-46
2022/04/21 03:24:19;;;;;;;18.63;9.73;;;;;;;10.50;55.38;101541.06;5135075;28;20410;-44
2022/04/21 03:26:53;;;;;;;12.35;9.52;;;;;;;10.46;55.40;101541.47;5134781;28;20427;-43
2022/04/21 03:29:26;;;;;;;10.55;8.27;;;;;;;10.32;55.55;101532.09;5137547;28;20409;-46
2022/04/21 03:31:58;;;;;;;12.57;8.73;;;;;;;10.38;55.59;101552.69;5138344;28;20430;-43
2022/04/21 03:34:31;;;;;;;12.43;8.65;;;;;;;10.36;55.92;101546.69;5136353;28;20414;-48
2022/04/21 03:37:04;;;;;;;10.98;8.20;;;;;;;10.26;55.88;101537.88;5136312;28;20407;-46
2022/04/21 03:39:38;;;;;;;10.77;8.60;;;;;;;10.32;55.83;101558.50;5135901;28;20977;-45
2022/04/21 03:42:20;;;;;;;12.27;8.98;;;;;;;10.22;56.05;101533.78;5134718;28;20435;-47
2022/04/21 03:44:52;;;;;;;11.45;8.32;;;;;;;10.23;56.05;101543.41;5139631;28;20432;-45
2022/04/21 03:47:25;;;;;;;16.55;8.73;;;;;;;10.21;56.16;101534.75;5134314;27;20537;-44
2022/04/21 03:49:57;;;;;;;13.18;7.85;;;;;;;10.24;56.29;101547.72;5136637;28;20415;-43
2022/04/21 03:52:30;;;;;;;9.98;8.02;;;;;;;10.15;56.22;101533.47;5136357;28;20435;-43
2022/04/21 03:55:04;;;;;;;10.55;7.35;;;;;;;10.24;56.32;101545.06;5135836;28;20512;-45
2022/04/21 03:57:36;;;;;;;10.43;8.27;;;;;;;10.25;56.27;101541.44;5134806;27;20494;-44
2022/04/21 04:00:12;;;;;;;11.80;8.55;;;;;;;10.20;56.08;101539.22;5139490;28;20431;-44
2022/04/21 04:02:44;;;;;;;12.35;8.30;;;;;;;10.26;56.27;101537.88;5135789;28;20778;-43
2022/04/21 04:05:17;;;;;;;9.48;7.68;;;;;;;10.30;56.22;101542.78;5133653;28;20521;-43
2022/04/21 04:10:54;;;;;;;10.98;7.82;;;;;;;10.29;56.09;101549.03;5133064;28;20497;-45
2022/04/21 04:13:27;;;;;;;12.90;8.38;;;;;;;10.27;56.03;101544.84;5136687;28;20422;-44
2022/04/21 04:16:00;;;;;;;11.80;7.93;;;;;;;10.23;56.15;101551.31;5133208;28;20435;-44
2022/04/21 04:18:33;;;;;;;10.83;7.17;;;;;;;10.20;56.07;101552.41;5135240;28;20492;-47
2022/04/21 04:21:07;;;;;;;11.68;7.45;;;;;;;10.05;56.13;101561.63;5128854;28;20417;-43
2022/04/21 04:23:39;;;;;;;10.25;6.80;;;;;;;10.10;56.38;101543.59;5137271;28;20414;-44
2022/04/21 04:26:13;;;;;;;14.60;8.13;;;;;;;9.99;56.15;101533.94;5137153;28;20447;-45
2022/04/21 04:28:45;;;;;;;11.80;7.15;;;;;;;10.11;56.49;101545.28;5138906;28;20415;-44
2022/04/21 04:31:18;;;;;;;9.90;7.28;;;;;;;10.04;56.51;101539.69;5135495;27;20423;-44
2022/04/21 04:33:50;;;;;;;9.50;8.30;;;;;;;10.14;56.32;101550.28;5141156;28;20735;-44
2022/04/21 04:36:23;;;;;;;10.63;6.80;;;;;;;10.16;56.27;101549.19;5139491;27;22557;-47
2022/04/21 04:38:56;;;;;;;8.45;7.15;;;;;;;10.11;56.50;101554.03;5138121;28;20423;-46
2022/04/21 04:44:19;;;;;;;11.57;8.27;;;;;;;10.14;56.35;101551.13;5139570;28;20452;-43
2022/04/21 04:46:51;;;;;;;11.00;8.05;;;;;;;10.20;56.48;101551.59;5137410;28;20543;-45
2022/04/21 04:49:24;;;;;;;9.07;7.50;;;;;;;10.22;56.40;101554.91;5139044;28;20431;-43
2022/04/21 04:51:56;;;;;;;10.18;7.35;;;;;;;10.15;56.26;101555.44;5135060;28;20483;-46
2022/04/21 04:54:29;;;;;;;11.20;6.65;;;;;;;10.04;56.25;101534.41;5139005;28;20446;-45
2022/04/21 04:57:03;;;;;;;8.95;7.40;;;;;;;9.97;56.40;101538.50;5142465;28;20422;-46
2022/04/21 04:59:35;;;;;;;8.45;6.68;;;;;;;10.21;56.57;101577.00;5173672;28;20836;-48
2022/04/21 05:02:08;;;;;;;13.95;6.93;;;;;;;10.03;56.37;101545.06;5185347;28;20475;-47
2022/04/21 05:04:41;;;;;;;8.63;6.68;;;;;;;10.25;56.69;101579.28;5140457;28;21357;-46
2022/04/21 05:07:13;;;;;;;10.50;6.82;;;;;;;10.23;56.59;101561.88;5186663;28;20777;-43
2022/04/21 05:09:46;;;;;;;8.02;6.55;;;;;;;10.22;56.45;101562.81;5192733;28;20412;-44
2022/04/21 05:12:21;;;;;;;8.00;6.07;;;;;;;10.30;56.36;101576.25;5189617;28;20507;-44
2022/04/21 05:14:53;;;;;;;9.70;6.15;;;;;;;10.36;56.31;101573.94;5148302;27;20469;-45
2022/04/21 05:17:26;;;;;;;10.43;7.28;;;;;;;10.45;56.34;101582.88;5177770;28;20456;-44
2022/04/21 05:19:59;;;;;;;11.30;7.00;;;;;;;10.32;56.22;101559.31;5195739;28;20486;-44
2022/04/21 05:22:37;;;;;;;8.90;7.70;;;;;;;10.34;56.17;101552.13;5221473;28;20413;-44
2022/04/21 05:25:12;;;;;;;8.77;6.85;;;;;;;10.59;56.38;101595.75;5217120;28;20410;-44
2022/04/21 05:27:47;;;;;;;8.32;6.35;;;;;;;10.66;56.24;101576.75;5232686;28;20406;-44
2022/04/21 05:33:14;;;;;;;10.10;6.80;;;;;;;10.74;56.13;101579.53;5247905;28;20410;-47
2022/04/21 05:35:47;;;;;;;9.93;6.27;;;;;;;10.79;55.92;101577.34;5185965;28;20407;-52
2022/04/21 05:38:21;;;;;;;10.10;6.77;;;;;;;10.82;55.98;101572.63;5141749;28;20466;-47
2022/04/21 05:40:54;;;;;;;9.20;7.00;;;;;;;10.84;55.79;101570.69;5168094;28;20508;-43
2022/04/21 05:43:34;;;;;;;13.10;7.70;;;;;;;10.91;55.87;101580.72;5158250;28;20428;-44
2022/04/21 05:46:07;;;;;;;8.52;6.35;;;;;;;10.87;55.79;101558.16;5217432;28;20460;-47
2022/04/21 05:48:41;;;;;;;8.30;6.68;;;;;;;11.08;55.71;101583.53;5238842;28;20902;-45
2022/04/21 05:51:15;;;;;;;10.20;7.03;;;;;;;11.13;55.63;101571.75;5239391;28;20442;-43
2022/04/21 05:53:51;;;;;;;9.15;7.20;;;;;;;11.18;55.46;101577.44;5210974;28;20425;-44
2022/04/21 05:56:24;;;;;;;8.20;6.70;;;;;;;11.17;55.42;101566.03;5248229;28;22053;-44
2022/04/21 05:58:57;;;;;;;12.20;7.20;;;;;;;11.58;55.26;101579.19;5242272;28;20394;-44
2022/04/21 06:01:31;;;;;;;13.13;6.95;;;;;;;12.73;54.15;101569.44;5247344;28;20401;-46
2022/04/21 06:04:04;;;;;;;7.78;5.88;;;;;;;14.21;52.76;101555.78;5229609;28;20424;-44
2022/04/21 06:06:36;;;;;;;10.05;6.35;;;;;;;15.52;51.35;101561.69;5227825;28;20468;-44
2022/04/21 06:09:09;;;;;;;9.30;5.40;;;;;;;16.80;50.25;101558.22;5194946;28;20885;-46
2022/04/21 06:11:43;;;;;;;7.88;5.15;;;;;;;17.72;48.97;101541.50;5232707;28;20522;-45
2022/04/21 06:14:16;;;;;;;6.57;4.67;;;;;;;18.65;47.86;101540.25;5193985;28;21984;-45
2022/04/21 06:16:49;;;;;;;8.15;4.78;;;;;;;19.46;47.03;101548.19;5127991;28;20463;-45
2022/04/21 06:19:21;;;;;;;6.15;4.50;;;;;;;20.04;45.88;101546.28;5140873;28;20436;-48
2022/04/21 06:21:53;;;;;;;9.50;4.65;;;;;;;20.31;45.52;101565.22;5156076;28;20810;-48
2022/04/21 06:24:26;;;;;;;10.05;5.18;;;;;;;20.22;45.39;101560.00;5144712;28;20778;-47
2022/04/21 06:26:59;;;;;;;8.45;4.70;;;;;;;19.95;44.87;101516.09;5127772;28;20444;-48
2022/04/21 06:29:33;;;;;;;9.45;4.57;;;;;;;20.73;43.96;101550.84;5154116;28;20421;-48
2022/04/21 06:32:06;;;;;;;7.13;4.50;;;;;;;21.04;43.19;101547.66;5148091;28;20483;-51
2022/04/21 06:34:39;;;;;;;8.10;4.43;;;;;;;21.29;42.57;101549.78;5142172;28;20558;-49
2022/04/21 06:37:11;;;;;;;5.93;4.60;;;;;;;21.78;41.79;101554.00;5144204;28;20539;-48
2022/04/21 06:39:43;;;;;;;5.68;4.20;;;;;;;22.20;41.05;101563.53;5144562;28;20550;-51
2022/04/21 06:42:16;;;;;;;6.70;4.40;;;;;;;22.26;40.67;101543.03;5138026;28;21020;-50
2022/04/21 06:50:30;;;;;;;7.68;4.55;;;;;;;23.32;38.71;101550.72;5155141;28;20400;-48
2022/04/21 06:53:03;;;;;;;8.55;4.32;;;;;;;23.75;38.00;101563.50;5148914;28;20416;-50
2022/04/21 06:55:36;;;;;;;7.23;3.80;;;;;;;23.80;37.69;101547.47;5145271;28;20417;-51
2022/04/21 06:58:08;;;;;;;6.85;4.07;;;;;;;23.99;37.29;101555.63;5148489;28;20436;-50
2022/04/21 07:00:42;;;;;;;7.38;4.18;;;;;;;24.52;36.64;101571.31;5141321;28;20505;-49
2022/04/21 07:03:15;;;;;;;7.00;4.17;;;;;;;25.23;35.78;101554.44;5146342;28;21145;-52
2022/04/21 07:05:51;;;;;;;7.07;4.82;;;;;;;24.78;35.76;101537.78;5142579;28;20432;-53
2022/04/21 07:08:24;;;;;;;8.20;3.80;;;;;;;24.76;35.77;101562.31;5149218;28;20417;-51
2022/04/21 07:10:56;;;;;;;6.13;4.23;;;;;;;24.54;35.82;101558.41;5145568;28;20515;-47
2022/04/21 07:13:29;;;;;;;6.13;4.43;;;;;;;24.60;35.70;101563.75;5145284;28;20413;-51
2022/04/21 07:16:03;;;;;;;6.10;4.43;;;;;;;24.79;35.21;101537.53;5146205;28;20431;-51
2022/04/21 07:18:35;;;;;;;6.47;4.30;;;;;;;25.66;34.33;101558.78;5137202;28;20448;-52
2022/04/21 07:21:09;;;;;;;7.38;4.97;;;;;;;25.79;34.17;101543.38;5153857;28;20429;-49
2022/04/21 07:23:49;;;;;;;7.93;4.85;;;;;;;25.64;34.00;101557.38;5142386;28;20421;-49
2022/04/21 07:26:21;;;;;;;6.20;4.03;;;;;;;24.88;34.54;101565.06;5148451;28;20434;-50
2022/04/21 07:28:53;;;;;;;8.38;4.63;;;;;;;24.07;35.13;101564.28;5156984;28;20638;-47
2022/04/21 07:31:28;;;;;;;6.43;4.38;;;;;;;23.62;35.43;101561.69;5154101;28;20758;-48
2022/04/21 07:34:00;;;;;;;8.52;4.60;;;;;;;23.43;35.41;101562.66;5150019;28;20469;-50
2022/04/21 07:36:34;;;;;;;9.93;5.50;;;;;;;23.38;35.63;101565.19;5149672;28;20504;-46
2022/04/21 07:39:06;;;;;;;5.53;4.50;;;;;;;23.55;35.28;101577.09;5152384;28;20417;-49
2022/04/21 07:41:39;;;;;;;9.25;4.90;;;;;;;23.49;35.13;101572.56;5150241;28;20428;-47
2022/04/21 07:44:12;;;;;;;11.17;4.87;;;;;;;23.74;34.96;101572.63;5138035;28;20434;-48
2022/04/21 07:46:45;;;;;;;7.87;4.63;;;;;;;23.85;34.67;101571.94;5142148;28;20862;-50
2022/04/21 07:54:58;;;;;;;8.07;4.95;;;;;;;23.81;34.77;101565.31;5158581;28;20417;-55
2022/04/21 07:57:30;;;;;;;8.53;5.50;;;;;;;23.89;34.69;101567.75;5152677;28;20511;-51
2022/04/21 08:00:05;;;;;;;7.90;4.95;;;;;;;23.55;35.09;101571.72;5161615;28;20526;-51
2022/04/21 08:02:41;;;;;;;8.95;5.55;;;;;;;22.97;35.44;101571.81;5137028;28;20432;-50
2022/04/21 08:05:15;;;;;;;10.05;5.55;;;;;;;22.66;35.69;101569.84;5151280;28;20431;-50
2022/04/21 08:07:49;;;;;;;10.97;5.20;;;;;;;22.18;36.18;101554.03;5134766;28;20525;-49
2022/04/21 08:10:22;;;;;;;8.35;5.05;;;;;;;21.91;36.25;101559.38;5133999;28;20592;-50
2022/04/21 08:12:58;;;;;;;8.68;5.30;;;;;;;21.18;36.41;101503.69;5136417;28;20429;-47
2022/04/21 08:15:33;;;;;;;7.93;5.10;;;;;;;21.32;36.53;101571.69;5134743;28;20504;-47
2022/04/21 08:18:09;;;;;;;8.13;4.82;;;;;;;21.63;36.57;101579.22;5132939;28;20445;-52
2022/04/21 08:20:41;;;;;;;6.20;4.45;;;;;;;21.89;36.16;101577.56;5134547;28;20431;-50
2022/04/21 08:23:13;;;;;;;6.23;4.33;;;;;;;21.87;36.12;101576.97;5133948;28;20442;-51
2022/04/21 08:34:19;;;;;;;8.13;4.43;;;;;;;21.36;36.69;101577.50;5140244;28;20430;-50
2022/04/21 08:36:51;;;;;;;7.68;3.75;;;;;;;21.90;36.17;101587.31;5141773;28;20770;-49
2022/04/21 08:39:24;;;;;;;7.32;3.80;;;;;;;21.66;36.17;101588.75;5139712;28;20480;-47
2022/04/21 08:42:08;;;;;;;9.85;4.30;;;;;;;21.07;36.82;101578.66;5137339;28;20790;-46
2022/04/21 08:44:43;;;;;;;8.47;3.83;;;;;;;20.55;37.12;101580.88;5133099;28;20419;-49
2022/04/21 08:47:21;;;;;;;7.05;4.10;;;;;;;20.01;37.42;101570.78;5182581;28;20765;-49
2022/04/21 08:50:02;;;;;;;8.13;4.13;;;;;;;19.36;37.76;101577.97;5164191;28;20433;-49
2022/04/21 08:52:35;;;;;;;5.35;3.70;;;;;;;18.95;38.25;101577.69;5138840;28;20423;-47
2022/04/21 08:55:09;;;;;;;6.68;4.35;;;;;;;18.60;38.20;101572.06;5148383;28;20426;-50
2022/04/21 08:57:41;;;;;;;5.80;4.03;;;;;;;18.27;38.35;101577.78;5142360;28;20531;-49
2022/04/21 09:00:14;;;;;;;6.78;3.92;;;;;;;18.35;38.11;101574.19;5153629;28;20431;-47
2022/04/21 09:02:49;;;;;;;7.20;3.83;;;;;;;18.46;37.74;101583.56;5148984;28;20446;-45
2022/04/21 09:05:23;;;;;;;6.77;3.57;;;;;;;18.49;37.58;101575.19;5142091;28;20467;-47
2022/04/21 09:07:56;;;;;;;13.35;3.90;;;;;;;18.49;37.32;101577.84;5125418;28;20423;-47
2022/04/21 09:10:31;;;;;;;5.28;3.55;;;;;;;18.33;37.46;101563.66;5132022;28;20461;-47
2022/04/21 09:13:04;;;;;;;7.40;3.65;;;;;;;18.08;37.50;101564.91;5166608;28;20415;-43
2022/04/21 09:15:37;;;;;;;9.20;3.78;;;;;;;18.06;37.72;101577.66;5133119;28;20437;-50
2022/04/21 09:18:13;;;;;;;5.35;3.65;;;;;;;17.85;37.47;101568.44;5153299;28;20903;-50
2022/04/21 09:20:54;;;;;;;6.65;3.63;;;;;;;17.82;37.48;101570.66;5138317;28;20516;-47
2022/04/21 09:23:34;;;;;;;4.63;3.33;;;;;;;17.87;37.45;101562.91;5167223;28;20486;-47
2022/04/21 09:26:14;;;;;;;6.22;3.38;;;;;;;17.70;37.45;101565.69;5172692;28;20477;-46
2022/04/21 09:28:55;;;;;;;7.50;3.72;;;;;;;17.68;37.46;101566.88;5139740;28;20660;-47
2022/04/21 09:31:29;;;;;;;5.13;3.33;;;;;;;17.55;37.29;101561.31;5113714;28;20611;-45
2022/04/21 09:34:02;;;;;;;4.72;3.50;;;;;;;17.57;37.37;101556.63;5170186;28;20475;-46
2022/04/21 09:36:37;;;;;;;5.25;3.65;;;;;;;17.35;37.43;101537.75;5119712;28;20449;-50
2022/04/21 09:39:16;;;;;;;8.70;4.20;;;;;;;17.28;37.39;101568.81;5123183;28;20416;-46
2022/04/21 09:41:54;;;;;;;4.75;3.40;;;;;;;17.21;37.37;101558.00;5133546;28;20550;-49
2022/04/21 09:47:30;;;;;;;5.97;3.83;;;;;;;17.29;37.37;101557.97;5132841;28;20777;-46
2022/04/21 09:50:13;;;;;;;5.30;3.87;;;;;;;17.06;37.45;101538.41;5128001;28;21088;-48
2022/04/21 09:52:52;;;;;;;7.70;3.70;;;;;;;17.22;37.56;101553.53;5121189;28;20514;-49
2022/04/21 09:55:27;;;;;;;7.05;3.53;;;;;;;17.31;37.15;101556.97;5137550;28;20501;-48
2022/04/21 09:58:07;;;;;;;6.07;3.67;;;;;;;17.44;37.02;101549.22;5128384;28;20453;-46
2022/04/21 10:00:41;;;;;;;7.32;3.67;;;;;;;17.42;36.99;101538.69;5123380;28;20507;-46
2022/04/21 10:03:14;;;;;;;6.53;3.88;;;;;;;17.49;37.00;101550.31;5124434;28;20428;-48
2022/04/21 10:05:47;;;;;;;4.80;3.58;;;;;;;17.62;36.88;101543.56;5190600;28;20997;-47
2022/04/21 10:08:21;;;;;;;4.32;3.45;;;;;;;17.59;36.98;101538.56;5124895;28;20507;-47
2022/04/21 10:10:55;;;;;;;3.80;3.30;;;;;;;17.43;37.09;101529.66;5133416;28;23327;-46
2022/04/21 10:13:30;;;;;;;5.10;3.83;;;;;;;17.29;37.37;101531.28;5125433;28;20424;-49
2022/04/21 10:16:02;;;;;;;7.60;4.00;;;;;;;17.23;37.31;101533.81;5133447;28;20826;-51
2022/04/21 10:18:35;;;;;;;5.88;4.07;;;;;;;17.20;37.36;101518.16;5128332;28;20503;-50
2022/04/21 10:21:09;;;;;;;5.22;3.58;;;;;;;17.20;37.41;101520.84;5133409;28;20423;-49
2022/04/21 10:23:45;;;;;;;7.73;4.10;;;;;;;17.15;37.24;101499.16;5126114;28;20788;-46
2022/04/21 10:26:36;;;;;;;9.25;3.88;;;;;;;17.22;37.36;101518.81;5124149;28;20450;-47
2022/04/21 10:29:13;;;;;;;8.20;4.40;;;;;;;17.24;37.40;101516.78;5128650;28;20515;-48
2022/04/21 10:31:54;;;;;;;5.90;4.13;;;;;;;17.37;37.21;101514.34;5139498;28;21715;-47
2022/04/21 10:34:34;;;;;;;4.90;3.80;;;;;;;17.35;37.19;101511.06;5134014;28;20423;-47
2022/04/21 10:37:12;;;;;;;8.52;4.20;;;;;;;17.31;37.19;101508.91;5126386;28;20412;-48
2022/04/21 10:40:07;;;;;;;5.38;3.97;;;;;;;17.12;37.23;101513.69;5134734;28;20430;-50
2022/04/21 10:43:03;;;;;;;6.30;4.13;;;;;;;17.13;37.13;101506.53;5128096;28;20430;-44
2022/04/21 10:45:37;;;;;;;8.50;3.80;;;;;;;17.27;37.05;101508.44;5132996;28;21119;-43
2022/04/21 10:48:12;;;;;;;6.22;4.07;;;;;;;17.48;36.79;101500.59;5131684;27;20423;-45
2022/04/21 10:50:46;;;;;;;5.50;3.75;;;;;;;17.55;36.84;101499.88;5135003;28;20411;-47
2022/04/21 10:59:14;;;;;;;5.93;4.32;;;;;;;17.61;36.71;101469.78;5161670;28;20410;-48
2022/04/21 11:01:54;;;;;;;7.47;4.45;;;;;;;17.76;36.90;101476.00;5132952;28;21405;-45
2022/04/21 11:04:26;;;;;;;8.80;3.73;;;;;;;17.45;36.83;101426.19;5191269;28;20497;-44
2022/04/21 11:07:11;;;;;;;4.07;3.47;;;;;;;17.78;36.59;101484.69;5173027;28;21161;-46
2022/04/21 11:09:50;;;;;;;7.97;4.32;;;;;;;17.70;36.78;101471.38;5140545;28;20834;-47
2022/04/21 11:12:46;;;;;;;6.10;3.50;;;;;;;17.88;36.71;101481.75;5172035;28;20437;-46
2022/04/21 11:15:39;;;;;;;5.47;3.30;;;;;;;18.05;36.50;101485.09;5162413;28;20898;-47
2022/04/21 11:18:13;;;;;;;5.70;4.13;;;;;;;18.01;36.27;101470.44;5170532;28;20422;-49
2022/04/21 11:20:48;;;;;;;11.98;3.95;;;;;;;17.97;36.30;101484.16;5126445;28;20426;-50
2022/04/21 11:23:24;;;;;;;6.85;4.35;;;;;;;17.95;36.30;101464.81;5185106;28;21858;-46
2022/04/21 11:26:05;;;;;;;10.77;4.27;;;;;;;18.08;35.84;101457.97;5177014;28;21879;-46
2022/04/21 11:28:43;;;;;;;6.38;3.85;;;;;;;18.06;35.88;101460.84;5184154;28;20588;-45
2022/04/21 11:31:16;;;;;;;7.00;3.60;;;;;;;17.97;36.16;101473.47;5195599;28;20917;-48
2022/04/21 11:33:49;;;;;;;8.98;4.30;;;;;;;17.92;36.04;101459.81;5211518;28;20406;-45
2022/04/21 11:36:33;;;;;;;6.78;3.75;;;;;;;18.01;35.91;101462.41;5197396;28;20755;-48
2022/04/21 11:39:13;;;;;;;6.55;3.85;;;;;;;18.08;35.91;101447.28;5197540;28;20414;-48
2022/04/21 11:41:48;;;;;;;5.57;3.38;;;;;;;18.19;35.75;101444.16;5181221;28;20501;-46
2022/04/21 11:44:23;;;;;;;10.02;4.18;;;;;;;18.28;35.66;101453.75;5199102;28;20784;-47
2022/04/21 11:46:56;;;;;;;5.18;3.75;;;;;;;18.35;35.58;101452.00;5203941;28;20446;-47
2022/04/21 11:49:28;;;;;;;5.88;3.20;;;;;;;18.31;35.72;101456.06;5203743;28;20558;-45
2022/04/21 11:52:00;;;;;;;6.63;3.30;;;;;;;18.22;35.65;101451.81;5191215;28;20455;-48
2022/04/21 11:54:33;;;;;;;11.35;3.72;;;;;;;18.14;35.79;101449.22;5182596;28;20782;-46
2022/04/21 11:57:05;;;;;;;7.45;3.65;;;;;;;18.11;35.68;101430.88;5151098;28;20466;-47
2022/04/21 11:59:41;;;;;;;7.40;4.07;;;;;;;18.36;35.51;101450.97;5177888;28;20420;-48
2022/04/21 12:07:56;;;;;;;4.10;3.33;;;;;;;18.50;35.65;101443.13;5137455;28;22436;-48
2022/04/21 12:10:28;;;;;;;5.22;3.30;;;;;;;18.62;35.53;101452.31;5166088;28;20414;-47
2022/04/21 12:13:01;;;;;;;4.70;3.40;;;;;;;18.49;35.60;101449.47;5126884;28;20927;-48
2022/04/21 12:15:39;;;;;;;4.00;2.97;;;;;;;18.37;35.67;101449.97;5164940;28;20473;-47
2022/04/21 12:18:11;;;;;;;7.68;3.65;;;;;;;18.39;35.73;101444.41;5136346;28;20423;-45
2022/04/21 12:20:54;;;;;;;4.93;3.10;;;;;;;18.19;35.69;101406.75;5136647;28;21442;-46
2022/04/21 12:23:27;;;;;;;10.98;3.30;;;;;;;18.35;35.82;101443.97;5198864;28;20425;-44
2022/04/21 12:26:00;;;;;;;6.75;3.22;;;;;;;18.19;35.97;101428.13;5144584;28;21253;-46
2022/04/21 12:28:46;;;;;;;5.78;3.78;;;;;;;18.26;36.03;101433.56;5142475;28;20421;-48
2022/04/21 12:31:20;;;;;;;8.20;3.15;;;;;;;18.33;36.03;101429.13;5153645;28;20498;-43
2022/04/21 12:33:53;;;;;;;5.68;3.25;;;;;;;18.26;36.07;101415.66;5153753;28;20414;-45
2022/04/21 12:36:27;;;;;;;7.07;3.22;;;;;;;18.29;35.99;101428.66;5140767;28;21013;-45
2022/04/21 12:39:03;;;;;;;6.53;3.30;;;;;;;18.40;36.01;101430.88;5146719;28;20428;-48
2022/04/21 12:41:36;;;;;;;7.45;2.90;;;;;;;18.54;35.72;101431.84;5145888;28;20427;-46
2022/04/21 12:44:09;;;;;;;4.93;2.90;;;;;;;18.67;35.68;101423.16;5152834;28;20817;-45
2022/04/21 12:46:42;;;;;;;11.87;3.37;;;;;;;18.74;35.49;101421.44;5152330;28;20429;-50
2022/04/21 12:49:15;;;;;;;6.47;3.40;;;;;;;18.62;35.66;101413.03;5129595;28;20445;-48